Time;durP1;ratioP1;P1;durP2;ratioP2;P2;SDS_P1;SDS_P2;PMS_P1;PMS_P2;Temp;Humidity;BMP_temperature;BMP_pressure;BME280_temperature;BME280_humidity;BME280_pressure;Samples;Min_cycle;Max_cycle;Signal;HPM_P1;HPM_P2
2024/04/15 00:00:43;;;;;;;2.33;2.13;;;12.30;93.50;;;;;;2218389;26;20742;-73
2024/04/15 00:01:44;;;;;;;2.97;2.30;;;12.30;93.60;;;;;;2220998;26;20650;-72
2024/04/15 00:02:44;;;;;;;2.40;2.20;;;12.30;93.60;;;;;;2251524;26;20267;-73
2024/04/15 00:03:45;;;;;;;2.60;2.40;;;12.30;93.30;;;;;;2250261;26;20743;-71
2024/04/15 00:04:46;;;;;;;2.80;2.50;;;12.30;93.40;;;;;;2236024;26;20319;-72
2024/04/15 00:05:46;;;;;;;3.40;2.10;;;12.30;93.30;;;;;;2236864;26;20257;-75
2024/04/15 00:06:47;;;;;;;2.80;2.57;;;12.30;93.30;;;;;;2228346;26;20371;-72
2024/04/15 00:07:51;;;;;;;2.67;2.30;;;12.30;93.60;;;;;;2228540;26;20265;-72
2024/04/15 00:08:52;;;;;;;3.17;1.88;;;12.30;94.00;;;;;;2228908;26;20265;-73
2024/04/15 00:09:53;;;;;;;5.85;2.40;;;12.30;94.60;;;;;;2235693;26;20787;-73
2024/04/15 00:10:53;;;;;;;2.53;2.33;;;12.20;94.20;;;;;;2242552;26;20303;-72
2024/04/15 00:11:54;;;;;;;4.47;2.60;;;12.20;94.20;;;;;;2242660;26;20307;-72
2024/04/15 00:12:55;;;;;;;2.40;2.20;;;12.20;94.00;;;;;;2232514;26;20649;-73
2024/04/15 00:13:55;;;;;;;3.30;2.37;;;12.30;94.00;;;;;;2246588;26;20264;-72
2024/04/15 00:14:56;;;;;;;4.00;2.53;;;12.30;94.10;;;;;;2248309;26;20367;-72
2024/04/15 00:15:57;;;;;;;3.20;2.20;;;12.30;94.70;;;;;;2250224;26;20268;-74
2024/04/15 00:16:58;;;;;;;3.03;2.50;;;12.20;94.90;;;;;;2252485;26;20264;-71
2024/04/15 00:17:59;;;;;;;3.30;2.10;;;12.10;94.90;;;;;;2250140;26;20372;-73
2024/04/15 00:18:59;;;;;;;3.50;2.23;;;12.10;94.70;;;;;;2235771;26;20307;-72
2024/04/15 00:20:00;;;;;;;2.87;2.10;;;12.20;95.00;;;;;;2221147;26;20756;-72
2024/04/15 00:21:02;;;;;;;3.57;1.93;;;12.20;95.20;;;;;;2233208;26;20284;-73
2024/04/15 00:22:03;;;;;;;2.40;2.03;;;12.10;95.40;;;;;;2248198;26;20232;-72
2024/04/15 00:23:04;;;;;;;2.60;2.17;;;12.10;95.70;;;;;;2243056;26;20825;-74
2024/04/15 00:24:05;;;;;;;3.13;2.20;;;12.20;96.00;;;;;;2236227;26;20241;-74
2024/04/15 00:25:05;;;;;;;3.30;2.10;;;12.10;96.50;;;;;;2236359;26;20749;-72
2024/04/15 00:26:06;;;;;;;2.30;2.10;;;12.20;95.90;;;;;;2243058;26;20292;-73
2024/04/15 00:27:07;;;;;;;3.93;2.50;;;12.20;95.20;;;;;;2230050;26;20305;-73
2024/04/15 00:28:08;;;;;;;2.60;2.33;;;12.20;95.10;;;;;;2235775;26;20314;-72
2024/04/15 00:29:08;;;;;;;4.53;2.10;;;12.20;94.40;;;;;;2232201;26;20300;-72
2024/04/15 00:30:10;;;;;;;4.07;2.30;;;12.20;94.90;;;;;;2247064;26;20271;-74
2024/04/15 00:31:10;;;;;;;2.63;2.28;;;12.10;95.20;;;;;;2248219;26;20616;-72
2024/04/15 00:32:11;;;;;;;2.03;1.83;;;12.10;95.40;;;;;;2242757;26;20232;-73
2024/04/15 00:33:12;;;;;;;2.50;1.97;;;12.10;96.10;;;;;;2232597;26;20293;-73
2024/04/15 00:34:14;;;;;;;2.80;2.27;;;12.10;96.30;;;;;;2236068;26;20233;-72
2024/04/15 00:35:14;;;;;;;3.10;2.30;;;12.20;96.40;;;;;;2221305;26;20242;-71
2024/04/15 00:36:15;;;;;;;4.90;2.40;;;12.20;96.60;;;;;;2236811;26;20229;-74
2024/04/15 00:37:16;;;;;;;2.70;2.50;;;12.30;96.40;;;;;;2229281;26;20281;-72
2024/04/15 00:38:17;;;;;;;2.38;2.17;;;12.40;96.90;;;;;;2245122;26;20748;-74
2024/04/15 00:39:18;;;;;;;2.73;2.43;;;12.40;96.80;;;;;;2236563;26;20233;-72
2024/04/15 00:40:18;;;;;;;2.50;2.30;;;12.40;96.90;;;;;;2244939;26;20270;-72
2024/04/15 00:41:19;;;;;;;2.93;2.40;;;12.50;97.20;;;;;;2243209;26;20233;-73
2024/04/15 00:42:20;;;;;;;2.70;2.33;;;12.50;97.10;;;;;;2228172;26;20234;-72
2024/04/15 00:43:20;;;;;;;3.43;2.57;;;12.60;97.80;;;;;;2228514;26;20261;-72
2024/04/15 00:44:34;;;;;;;2.93;2.33;;;12.60;98.00;;;;;;2229375;26;21122;-75
2024/04/15 00:45:36;;;;;;;3.72;2.42;;;12.70;98.10;;;;;;2243368;26;20270;-74
2024/04/15 00:46:37;;;;;;;3.90;1.90;;;12.70;98.40;;;;;;2243109;26;20377;-72
2024/04/15 00:47:37;;;;;;;3.20;2.10;;;12.70;98.90;;;;;;2228087;26;20265;-72
2024/04/15 00:48:38;;;;;;;3.03;2.40;;;12.80;98.90;;;;;;2236662;26;20811;-72
2024/04/15 00:49:40;;;;;;;3.88;2.30;;;12.90;98.70;;;;;;2228451;26;20644;-73
2024/04/15 00:50:43;;;;;;;4.45;2.40;;;12.90;98.60;;;;;;2235292;26;20328;-71
2024/04/15 00:51:44;;;;;;;2.35;2.15;;;13.00;98.90;;;;;;2229567;26;20269;-72
2024/04/15 00:52:45;;;;;;;3.00;2.20;;;13.00;98.60;;;;;;2229655;26;20261;-72
2024/04/15 00:53:47;;;;;;;2.83;2.38;;;13.00;98.50;;;;;;2236639;26;20304;-72
2024/04/15 00:54:48;;;;;;;2.55;2.35;;;13.00;98.50;;;;;;2250343;26;20851;-72
2024/04/15 00:55:53;;;;;;;3.30;2.50;;;13.00;98.50;;;;;;2228312;26;20282;-72
2024/04/15 00:56:55;;;;;;;3.13;2.40;;;13.10;98.30;;;;;;2236929;26;20287;-72
2024/04/15 00:57:56;;;;;;;3.15;2.42;;;13.10;98.20;;;;;;2242657;26;20319;-72
2024/04/15 00:58:57;;;;;;;4.53;2.40;;;13.10;98.10;;;;;;2235431;26;20264;-72
2024/04/15 00:59:59;;;;;;;3.92;2.05;;;13.20;97.80;;;;;;2235448;26;20264;-71
2024/04/15 01:01:01;;;;;;;2.85;2.20;;;13.20;97.70;;;;;;2236186;26;20843;-72
2024/04/15 01:02:02;;;;;;;3.95;2.45;;;13.10;97.50;;;;;;2241250;26;20710;-72
2024/04/15 01:03:05;;;;;;;3.10;2.20;;;13.10;97.60;;;;;;2248616;26;20351;-72
2024/04/15 01:04:05;;;;;;;2.97;2.27;;;13.20;97.60;;;;;;2229831;26;20225;-72
2024/04/15 01:05:06;;;;;;;3.70;2.20;;;13.20;97.40;;;;;;2230636;26;20558;-72
2024/04/15 01:06:08;;;;;;;3.13;1.90;;;13.30;97.10;;;;;;2234464;26;20930;-71
2024/04/15 01:07:09;;;;;;;3.50;2.20;;;13.30;97.00;;;;;;2245886;26;20266;-72
2024/04/15 01:08:11;;;;;;;3.70;2.07;;;13.20;96.80;;;;;;2231055;26;20233;-72
2024/04/15 01:09:12;;;;;;;3.55;2.00;;;13.20;96.90;;;;;;2235027;26;20350;-72
2024/04/15 01:10:12;;;;;;;2.70;1.93;;;13.20;96.80;;;;;;2224848;26;20242;-71
2024/04/15 01:11:13;;;;;;;2.30;2.10;;;13.30;96.80;;;;;;2226738;26;20242;-72
2024/04/15 01:12:14;;;;;;;3.07;2.23;;;13.30;96.50;;;;;;2227548;26;20235;-72
2024/04/15 01:13:15;;;;;;;3.10;2.17;;;13.30;96.40;;;;;;2220927;26;20246;-71
2024/04/15 01:14:16;;;;;;;2.30;1.90;;;13.20;96.40;;;;;;2206475;26;20239;-73
2024/04/15 01:15:16;;;;;;;3.10;2.13;;;13.30;96.20;;;;;;2221365;26;20268;-72
2024/04/15 01:16:17;;;;;;;3.33;2.10;;;13.30;96.20;;;;;;2245300;26;20244;-72
2024/04/15 01:17:18;;;;;;;3.13;2.37;;;13.30;96.10;;;;;;2235327;26;20245;-72
2024/04/15 01:18:18;;;;;;;2.33;1.90;;;13.30;96.20;;;;;;2222617;26;20314;-72
2024/04/15 01:19:19;;;;;;;2.87;2.00;;;13.30;96.10;;;;;;2235664;26;20237;-72
2024/04/15 01:20:20;;;;;;;2.40;1.90;;;13.30;95.80;;;;;;2236117;26;20228;-72
2024/04/15 01:21:20;;;;;;;4.03;2.37;;;13.30;95.60;;;;;;2216217;26;21043;-72
2024/04/15 01:22:24;;;;;;;5.20;2.00;;;13.30;95.60;;;;;;2221845;26;20427;-71
2024/04/15 01:23:37;;;;;;;3.67;2.13;;;13.30;96.00;;;;;;2221913;26;20355;-72
2024/04/15 01:24:38;;;;;;;3.70;1.93;;;13.30;95.80;;;;;;2239140;26;20535;-72
2024/04/15 01:25:39;;;;;;;2.10;1.70;;;13.30;95.80;;;;;;2243799;26;20554;-72
2024/04/15 01:26:46;;;;;;;2.50;1.85;;;13.30;95.80;;;;;;2250497;26;20264;-72
2024/04/15 01:27:47;;;;;;;2.22;2.03;;;13.30;95.60;;;;;;2244958;26;20327;-72
2024/04/15 01:28:47;;;;;;;2.20;2.00;;;13.20;95.60;;;;;;2235669;26;20608;-72
2024/04/15 01:29:48;;;;;;;3.10;2.30;;;13.20;95.90;;;;;;2235686;26;20303;-72
2024/04/15 01:30:49;;;;;;;3.63;1.90;;;13.20;95.80;;;;;;2250958;26;20307;-72
2024/04/15 01:31:50;;;;;;;2.30;1.85;;;13.20;95.80;;;;;;2236057;26;20269;-72
2024/04/15 01:32:50;;;;;;;5.10;2.10;;;13.30;95.80;;;;;;2249763;26;20675;-72
2024/04/15 01:33:51;;;;;;;4.07;1.70;;;13.30;95.40;;;;;;2235813;26;20269;-72
2024/04/15 01:34:52;;;;;;;3.27;1.87;;;13.40;95.30;;;;;;2235776;26;20281;-72
2024/04/15 01:35:53;;;;;;;4.03;2.10;;;13.40;94.90;;;;;;2251856;26;20752;-72
2024/04/15 01:36:53;;;;;;;3.93;2.30;;;13.40;94.90;;;;;;2250886;26;20263;-71
2024/04/15 01:37:54;;;;;;;3.23;1.87;;;13.30;95.10;;;;;;2250952;26;20298;-72
2024/04/15 01:38:55;;;;;;;3.53;1.90;;;13.20;95.30;;;;;;2236168;26;20264;-72
2024/04/15 01:39:55;;;;;;;2.33;1.80;;;13.30;95.30;;;;;;2221141;26;20305;-72
2024/04/15 01:40:56;;;;;;;3.03;2.10;;;13.40;95.00;;;;;;2220341;26;20316;-71
2024/04/15 01:41:57;;;;;;;3.47;1.87;;;13.30;94.90;;;;;;2235907;26;20849;-72
2024/04/15 01:42:57;;;;;;;5.67;1.90;;;13.20;95.30;;;;;;2228684;26;20268;-71
2024/04/15 01:43:58;;;;;;;2.43;1.80;;;13.20;95.50;;;;;;2235034;26;20342;-72
2024/04/15 01:44:59;;;;;;;2.83;1.93;;;13.20;95.50;;;;;;2235513;26;20299;-72
2024/04/15 01:45:59;;;;;;;2.53;1.80;;;13.20;95.80;;;;;;2220270;26;20359;-72
2024/04/15 01:47:00;;;;;;;3.57;2.20;;;13.10;95.70;;;;;;2236574;26;20268;-72
2024/04/15 01:48:01;;;;;;;2.63;2.10;;;13.10;95.80;;;;;;2235834;26;20253;-72
2024/04/15 01:49:02;;;;;;;2.80;1.90;;;13.10;96.00;;;;;;2219192;26;20249;-72
2024/04/15 01:50:03;;;;;;;3.23;1.97;;;13.00;95.90;;;;;;2236360;26;20284;-72
2024/04/15 01:51:04;;;;;;;4.17;2.17;;;13.00;95.90;;;;;;2250245;26;20858;-71
2024/04/15 01:52:05;;;;;;;2.97;1.70;;;13.10;95.90;;;;;;2234969;26;20577;-72
2024/04/15 01:53:11;;;;;;;2.75;2.00;;;13.00;95.90;;;;;;2236260;26;20744;-72
2024/04/15 01:54:11;;;;;;;2.75;1.95;;;13.10;95.90;;;;;;2251031;26;20650;-72
2024/04/15 01:55:12;;;;;;;3.07;2.20;;;13.10;95.80;;;;;;2252051;26;20231;-72
2024/04/15 01:56:13;;;;;;;5.23;2.23;;;13.10;95.70;;;;;;2243057;26;20747;-71
2024/04/15 01:57:13;;;;;;;3.97;2.20;;;13.00;95.90;;;;;;2221031;26;20822;-72
2024/04/15 01:58:14;;;;;;;3.87;2.60;;;13.00;96.00;;;;;;2235467;26;20379;-71
2024/04/15 01:59:15;;;;;;;3.47;2.07;;;13.00;96.20;;;;;;2235450;26;20283;-72
2024/04/15 02:00:16;;;;;;;3.73;2.30;;;12.90;96.40;;;;;;2235572;26;20237;-72
2024/04/15 02:01:16;;;;;;;4.27;2.40;;;12.90;96.50;;;;;;2220147;26;20288;-73
2024/04/15 02:02:17;;;;;;;3.53;2.40;;;12.90;96.50;;;;;;2226430;26;20245;-72
2024/04/15 02:03:18;;;;;;;5.77;2.37;;;13.00;96.40;;;;;;2221771;26;20242;-72
2024/04/15 02:04:18;;;;;;;2.20;2.00;;;13.00;96.10;;;;;;2249076;26;20228;-72
2024/04/15 02:05:19;;;;;;;7.00;2.10;;;12.90;96.40;;;;;;2243010;26;20342;-72
2024/04/15 02:06:20;;;;;;;3.20;2.40;;;12.90;96.70;;;;;;2243534;26;20288;-72
2024/04/15 02:07:20;;;;;;;3.27;2.30;;;12.90;96.70;;;;;;2249812;26;20270;-72
2024/04/15 02:08:21;;;;;;;3.10;2.13;;;13.00;96.60;;;;;;2220864;26;20802;-72
2024/04/15 02:09:22;;;;;;;2.47;2.10;;;13.00;96.60;;;;;;2218605;26;20278;-72
2024/04/15 02:10:23;;;;;;;3.90;2.30;;;12.90;96.50;;;;;;2220608;26;20330;-72
2024/04/15 02:11:23;;;;;;;4.43;2.50;;;12.90;96.90;;;;;;2236136;26;20268;-71
2024/04/15 02:12:24;;;;;;;4.57;2.00;;;13.00;96.40;;;;;;2250418;26;20859;-72
2024/04/15 02:13:25;;;;;;;3.67;2.63;;;12.90;96.60;;;;;;2250675;26;20305;-71
2024/04/15 02:14:26;;;;;;;7.20;2.97;;;12.80;96.80;;;;;;2234961;26;20824;-72
2024/04/15 02:15:26;;;;;;;4.50;2.20;;;12.80;97.20;;;;;;2235618;26;20269;-71
2024/04/15 02:16:27;;;;;;;4.03;2.30;;;12.80;97.50;;;;;;2250184;26;20819;-72
2024/04/15 02:17:27;;;;;;;5.03;2.40;;;12.80;97.30;;;;;;2250162;26;20264;-72
2024/04/15 02:18:28;;;;;;;3.03;2.20;;;12.80;97.10;;;;;;2235956;26;20268;-72
2024/04/15 02:19:31;;;;;;;5.17;2.40;;;12.80;97.10;;;;;;2234930;26;20269;-72
2024/04/15 02:20:31;;;;;;;3.20;2.20;;;12.90;97.10;;;;;;2235910;26;20269;-72
2024/04/15 02:21:32;;;;;;;2.53;2.33;;;12.80;97.00;;;;;;2235181;26;20269;-72
2024/04/15 02:22:33;;;;;;;5.30;2.70;;;12.80;97.10;;;;;;2232628;26;20268;-72
2024/04/15 02:23:34;;;;;;;3.90;2.63;;;12.80;97.30;;;;;;2236318;26;20280;-71
2024/04/15 02:24:35;;;;;;;4.37;2.67;;;12.70;97.70;;;;;;2251835;26;20824;-72
2024/04/15 02:25:35;;;;;;;5.77;2.40;;;12.70;97.90;;;;;;2251416;26;20267;-72
2024/04/15 02:26:36;;;;;;;3.20;2.60;;;12.70;98.00;;;;;;2252648;26;20302;-72
2024/04/15 02:27:37;;;;;;;3.27;2.70;;;12.60;98.20;;;;;;2249970;26;20267;-72
2024/04/15 02:28:37;;;;;;;4.10;2.77;;;12.50;98.40;;;;;;2235255;26;20261;-72
2024/04/15 02:29:38;;;;;;;3.83;2.70;;;12.50;98.60;;;;;;2235849;26;20745;-72
2024/04/15 02:30:39;;;;;;;4.37;3.17;;;12.50;98.90;;;;;;2235714;26;20666;-72
2024/04/15 02:31:39;;;;;;;6.43;3.13;;;12.40;98.90;;;;;;2235360;26;20304;-72
2024/04/15 02:32:42;;;;;;;5.13;3.00;;;12.40;99.00;;;;;;2236219;26;20269;-72
2024/04/15 02:33:43;;;;;;;5.35;3.08;;;12.40;99.10;;;;;;2243465;26;20311;-73
2024/04/15 02:34:43;;;;;;;5.80;3.07;;;12.50;99.00;;;;;;2251236;26;20310;-72
2024/04/15 02:35:45;;;;;;;5.53;2.80;;;12.40;99.00;;;;;;2250144;26;20281;-72
2024/04/15 02:36:46;;;;;;;4.80;2.90;;;12.50;99.10;;;;;;2246712;26;20356;-72
2024/04/15 02:37:47;;;;;;;5.50;3.17;;;12.50;99.00;;;;;;2249743;26;20879;-72
2024/04/15 02:38:49;;;;;;;3.70;2.80;;;12.50;98.90;;;;;;2234620;26;20685;-72
2024/04/15 02:39:49;;;;;;;3.58;2.80;;;12.50;98.90;;;;;;2235192;26;20295;-72
2024/04/15 02:40:50;;;;;;;6.07;3.37;;;12.50;98.80;;;;;;2249676;26;20716;-72
2024/04/15 02:41:51;;;;;;;4.38;2.83;;;12.60;98.50;;;;;;2235889;26;20268;-72
2024/04/15 02:42:52;;;;;;;8.27;3.80;;;12.60;98.40;;;;;;2235830;26;20303;-71
2024/04/15 02:43:52;;;;;;;5.20;2.73;;;12.70;98.50;;;;;;2234826;26;20315;-71
2024/04/15 02:44:54;;;;;;;5.93;3.00;;;12.50;98.60;;;;;;2236769;26;20311;-72
2024/04/15 02:45:54;;;;;;;3.35;2.70;;;12.50;98.60;;;;;;2251189;26;20298;-72
2024/04/15 02:46:55;;;;;;;3.83;2.70;;;12.50;98.60;;;;;;2236894;26;20340;-72
2024/04/15 02:47:56;;;;;;;3.10;2.53;;;12.60;98.50;;;;;;2234942;26;20692;-72
2024/04/15 02:48:56;;;;;;;4.87;3.20;;;12.60;98.30;;;;;;2235543;26;20328;-72
2024/04/15 02:49:57;;;;;;;6.40;2.80;;;12.50;98.30;;;;;;2213684;26;20308;-72
2024/04/15 02:50:59;;;;;;;5.30;2.80;;;12.60;98.50;;;;;;2236103;26;20264;-72
2024/04/15 02:52:00;;;;;;;4.47;3.28;;;12.60;98.20;;;;;;2250208;26;20656;-72
2024/04/15 02:53:00;;;;;;;3.60;2.30;;;12.70;98.00;;;;;;2250939;26;20240;-72
2024/04/15 02:54:01;;;;;;;2.53;2.33;;;12.70;97.70;;;;;;2249039;26;20692;-72
2024/04/15 02:55:02;;;;;;;5.17;3.20;;;12.80;97.60;;;;;;2249856;26;20292;-72
2024/04/15 02:56:03;;;;;;;3.67;2.60;;;12.80;97.40;;;;;;2235509;26;20347;-73
2024/04/15 02:57:09;;;;;;;4.93;3.20;;;12.80;97.40;;;;;;2235222;26;20318;-72
2024/04/15 02:58:09;;;;;;;3.35;2.70;;;12.80;97.00;;;;;;2233215;26;20304;-72
2024/04/15 02:59:10;;;;;;;4.83;3.10;;;12.80;97.40;;;;;;2235529;26;20237;-71
2024/04/15 03:00:11;;;;;;;4.80;3.17;;;12.70;97.50;;;;;;2250018;26;20240;-71
2024/04/15 03:01:11;;;;;;;6.27;2.83;;;12.70;97.60;;;;;;2249507;26;20232;-71
2024/04/15 03:02:12;;;;;;;5.40;3.20;;;12.70;97.60;;;;;;2250410;26;20280;-71
2024/04/15 03:03:13;;;;;;;3.33;2.97;;;12.80;97.50;;;;;;2251623;26;20229;-72
2024/04/15 03:04:13;;;;;;;4.60;2.70;;;12.80;97.20;;;;;;2251672;26;20599;-72
2024/04/15 03:05:14;;;;;;;3.17;2.83;;;12.80;97.10;;;;;;2229042;26;20229;-71
2024/04/15 03:06:19;;;;;;;4.53;3.00;;;12.80;97.10;;;;;;2234622;26;20233;-72
2024/04/15 03:07:20;;;;;;;6.43;3.58;;;12.80;97.20;;;;;;2244625;26;20232;-71
2024/04/15 03:08:20;;;;;;;6.10;3.13;;;12.70;97.30;;;;;;2250737;26;20782;-71
2024/04/15 03:09:25;;;;;;;3.73;2.73;;;12.50;97.50;;;;;;2249991;26;20264;-72
2024/04/15 03:10:26;;;;;;;6.47;3.25;;;12.40;98.00;;;;;;2249765;26;20380;-72
2024/04/15 03:11:27;;;;;;;4.32;3.17;;;12.40;98.20;;;;;;2236902;26;20296;-71
2024/04/15 03:12:28;;;;;;;5.73;3.23;;;12.40;98.30;;;;;;2233648;26;20319;-72
2024/04/15 03:13:29;;;;;;;4.67;3.30;;;12.20;98.50;;;;;;2250569;26;20279;-72
2024/04/15 03:14:31;;;;;;;3.43;3.10;;;12.20;98.80;;;;;;2248381;26;20340;-73
2024/04/15 03:15:32;;;;;;;4.07;3.28;;;12.20;99.10;;;;;;2235656;26;20315;-72
2024/04/15 03:16:32;;;;;;;6.80;3.30;;;12.20;99.00;;;;;;2247696;26;20324;-72
2024/04/15 03:17:33;;;;;;;5.10;3.27;;;12.20;99.00;;;;;;2233571;26;20265;-71
2024/04/15 03:18:34;;;;;;;5.77;3.57;;;12.20;99.10;;;;;;2229080;26;20361;-72
2024/04/15 03:19:34;;;;;;;5.73;3.30;;;12.20;98.90;;;;;;2235471;26;20304;-72
2024/04/15 03:20:35;;;;;;;4.27;3.00;;;12.30;98.90;;;;;;2234107;26;20359;-72
2024/04/15 03:21:36;;;;;;;6.13;3.13;;;12.30;98.80;;;;;;2251841;26;20306;-72
2024/04/15 03:22:36;;;;;;;5.13;3.10;;;12.30;98.80;;;;;;2233274;26;20280;-72
2024/04/15 03:23:37;;;;;;;4.03;3.63;;;12.40;98.60;;;;;;2250151;26;20275;-72
2024/04/15 03:24:38;;;;;;;4.67;3.13;;;12.40;98.20;;;;;;2248900;26;20267;-71
2024/04/15 03:25:38;;;;;;;6.57;3.33;;;12.40;98.20;;;;;;2249119;26;20260;-72
2024/04/15 03:26:39;;;;;;;6.07;3.20;;;12.40;98.40;;;;;;2249470;26;20272;-71
2024/04/15 03:27:40;;;;;;;5.57;3.30;;;12.30;98.50;;;;;;2242681;26;20613;-72
2024/04/15 03:28:40;;;;;;;6.23;3.23;;;12.30;98.60;;;;;;2217713;26;20270;-72
2024/04/15 03:29:41;;;;;;;4.00;2.93;;;12.40;98.60;;;;;;2227813;26;20891;-71
2024/04/15 03:30:42;;;;;;;4.80;3.10;;;12.40;98.30;;;;;;2212792;26;20320;-72
2024/04/15 03:31:42;;;;;;;4.30;3.07;;;12.50;98.20;;;;;;2220226;26;20374;-72
2024/04/15 03:32:43;;;;;;;4.23;2.90;;;12.60;98.10;;;;;;2218960;26;20281;-71
2024/04/15 03:33:44;;;;;;;5.28;3.42;;;12.60;97.90;;;;;;2220431;26;20316;-72
2024/04/15 03:34:45;;;;;;;3.60;3.10;;;12.60;98.30;;;;;;2244864;26;20268;-72
2024/04/15 03:35:46;;;;;;;5.37;3.00;;;12.50;97.80;;;;;;2252444;26;20608;-72
2024/04/15 03:36:46;;;;;;;5.57;3.13;;;12.60;97.60;;;;;;2252410;26;20263;-72
2024/04/15 03:37:47;;;;;;;4.60;3.30;;;12.70;97.30;;;;;;2250421;26;20276;-72
2024/04/15 03:38:49;;;;;;;6.03;3.53;;;12.70;97.20;;;;;;2249785;26;20263;-72
2024/04/15 03:39:49;;;;;;;4.07;3.33;;;12.80;97.20;;;;;;2221189;26;20277;-71
2024/04/15 03:40:50;;;;;;;6.97;3.33;;;12.90;97.00;;;;;;2234096;26;20727;-72
2024/04/15 03:41:51;;;;;;;4.03;3.03;;;12.90;96.90;;;;;;2249146;26;20268;-71
2024/04/15 03:42:52;;;;;;;3.83;3.42;;;12.90;96.90;;;;;;2248728;26;20318;-72
2024/04/15 03:43:53;;;;;;;5.70;3.13;;;13.00;96.90;;;;;;2249048;26;20264;-72
2024/04/15 03:44:54;;;;;;;5.03;2.93;;;12.90;96.80;;;;;;2220079;26;20262;-72
2024/04/15 03:45:55;;;;;;;4.65;3.13;;;12.90;96.70;;;;;;2219412;26;20308;-71
2024/04/15 03:46:55;;;;;;;4.13;3.37;;;13.00;96.90;;;;;;2234737;26;20351;-72
2024/04/15 03:47:56;;;;;;;5.20;2.93;;;12.90;96.80;;;;;;2233963;26;20707;-72
2024/04/15 03:48:58;;;;;;;5.43;3.50;;;13.00;96.90;;;;;;2250187;26;20340;-72
2024/04/15 03:49:58;;;;;;;3.83;3.22;;;12.90;97.00;;;;;;2249145;26;20266;-72
2024/04/15 03:50:59;;;;;;;7.30;4.00;;;12.90;97.20;;;;;;2248915;26;20357;-72
2024/04/15 03:52:00;;;;;;;5.50;3.20;;;13.00;98.20;;;;;;2249454;26;20611;-72
2024/04/15 03:53:01;;;;;;;4.70;3.40;;;13.00;97.90;;;;;;2248697;26;20275;-70
2024/04/15 03:54:01;;;;;;;5.50;3.33;;;13.00;99.20;;;;;;2248971;26;20617;-71
2024/04/15 03:55:03;;;;;;;6.40;4.30;;;13.00;98.40;;;;;;2250722;26;20237;-73
2024/04/15 03:56:04;;;;;;;4.90;3.70;;;12.90;98.30;;;;;;2250421;26;20314;-72
2024/04/15 03:57:05;;;;;;;6.63;3.70;;;12.90;98.20;;;;;;2233975;26;20245;-72
2024/04/15 03:58:06;;;;;;;4.63;3.53;;;12.90;98.10;;;;;;2233990;26;20326;-72
2024/04/15 03:59:06;;;;;;;5.40;3.70;;;12.80;98.10;;;;;;2250884;26;20244;-72
2024/04/15 04:00:08;;;;;;;6.47;3.60;;;12.90;98.30;;;;;;2245181;26;20684;-72
2024/04/15 04:01:08;;;;;;;8.57;3.50;;;12.80;98.30;;;;;;2234625;26;20236;-72
2024/04/15 04:02:09;;;;;;;4.00;3.30;;;12.90;98.40;;;;;;2234670;26;20394;-72
2024/04/15 04:03:10;;;;;;;4.53;3.38;;;12.90;98.60;;;;;;2234875;26;20805;-72
2024/04/15 04:04:11;;;;;;;4.00;3.47;;;12.80;98.50;;;;;;2234329;26;20351;-72
2024/04/15 04:05:11;;;;;;;4.30;3.63;;;12.80;98.50;;;;;;2243975;26;20328;-72
2024/04/15 04:06:12;;;;;;;4.47;3.70;;;12.80;98.70;;;;;;2228309;26;20237;-72
2024/04/15 04:07:13;;;;;;;5.67;3.57;;;12.80;98.80;;;;;;2241419;26;20279;-72
2024/04/15 04:08:13;;;;;;;6.03;3.70;;;12.80;98.80;;;;;;2249440;26;20283;-72
2024/04/15 04:09:14;;;;;;;5.30;4.17;;;12.80;98.90;;;;;;2236194;26;20352;-73
2024/04/15 04:10:15;;;;;;;4.23;3.60;;;12.80;99.10;;;;;;2227932;26;20229;-72
2024/04/15 04:11:15;;;;;;;3.97;3.50;;;12.80;99.10;;;;;;2234943;26;20232;-72
2024/04/15 04:12:17;;;;;;;5.50;3.90;;;12.70;99.20;;;;;;2227464;26;20322;-72
2024/04/15 04:13:18;;;;;;;7.68;4.18;;;12.80;99.20;;;;;;2234883;26;20284;-72
2024/04/15 04:14:19;;;;;;;4.63;3.73;;;12.70;99.20;;;;;;2235651;26;20237;-72
2024/04/15 04:15:19;;;;;;;6.17;4.30;;;12.70;99.30;;;;;;2249518;26;20228;-72
2024/04/15 04:16:21;;;;;;;6.23;4.17;;;12.80;99.20;;;;;;2234988;26;20229;-72
2024/04/15 04:17:22;;;;;;;6.10;4.80;;;12.70;99.30;;;;;;2234542;26;20307;-72
2024/04/15 04:18:22;;;;;;;5.00;4.23;;;12.80;99.30;;;;;;2235330;26;20363;-72
2024/04/15 04:19:25;;;;;;;6.13;4.70;;;12.80;99.20;;;;;;2250234;26;20696;-72
2024/04/15 04:20:26;;;;;;;7.10;4.65;;;12.80;99.50;;;;;;2234459;26;20264;-72
2024/04/15 04:21:26;;;;;;;6.13;4.57;;;12.90;99.70;;;;;;2214786;26;20632;-72
2024/04/15 04:22:27;;;;;;;5.27;4.27;;;12.90;99.90;;;;;;2205036;26;20270;-72
2024/04/15 04:23:28;;;;;;;7.47;4.50;;;12.80;99.80;;;;;;2221871;26;20261;-72
2024/04/15 04:24:29;;;;;;;6.63;4.20;;;12.70;99.80;;;;;;2235178;26;20747;-72
2024/04/15 04:25:30;;;;;;;4.60;3.88;;;12.70;99.90;;;;;;2235354;26;20316;-72
2024/04/15 04:26:30;;;;;;;5.67;4.17;;;12.70;99.90;;;;;;2241655;26;20637;-72
2024/04/15 04:27:31;;;;;;;6.17;4.07;;;12.70;99.90;;;;;;2233290;26;20280;-71
2024/04/15 04:28:32;;;;;;;5.30;3.60;;;12.70;99.90;;;;;;2236827;26;20325;-72
2024/04/15 04:29:34;;;;;;;6.25;4.45;;;12.70;99.90;;;;;;2245577;26;20303;-71
2024/04/15 04:30:34;;;;;;;4.88;4.15;;;12.70;99.90;;;;;;2250076;26;20303;-71
2024/04/15 04:31:37;;;;;;;4.87;3.97;;;12.70;99.90;;;;;;2219594;26;20790;-71
2024/04/15 04:32:40;;;;;;;6.30;3.88;;;12.70;99.90;;;;;;2223435;26;20266;-71
2024/04/15 04:33:40;;;;;;;5.13;4.22;;;12.70;99.90;;;;;;2231587;26;20276;-71
2024/04/15 04:34:41;;;;;;;7.13;5.00;;;12.70;99.90;;;;;;2206927;26;20267;-71
2024/04/15 04:35:42;;;;;;;5.77;4.13;;;12.80;99.90;;;;;;2219683;26;20324;-71
2024/04/15 04:36:42;;;;;;;4.60;3.60;;;12.80;99.90;;;;;;2229761;26;20262;-70
2024/04/15 04:37:43;;;;;;;6.37;4.50;;;12.70;99.90;;;;;;2226615;26;20282;-71
2024/04/15 04:38:44;;;;;;;5.90;4.70;;;12.70;99.90;;;;;;2212954;26;20297;-71
2024/04/15 04:39:44;;;;;;;7.30;5.17;;;12.70;99.90;;;;;;2227248;26;20276;-71
2024/04/15 04:40:45;;;;;;;4.90;4.40;;;12.60;99.90;;;;;;2213645;26;20278;-73
2024/04/15 04:41:46;;;;;;;6.20;4.07;;;12.70;99.90;;;;;;2204438;26;20271;-71
2024/04/15 04:42:47;;;;;;;8.63;5.23;;;12.70;99.90;;;;;;2208441;26;21104;-71
2024/04/15 04:43:48;;;;;;;6.22;4.00;;;12.70;99.90;;;;;;2241205;26;20749;-71
2024/04/15 04:44:54;;;;;;;6.93;5.37;;;12.60;99.90;;;;;;2241873;26;20267;-71
2024/04/15 04:45:55;;;;;;;7.38;5.38;;;12.70;99.90;;;;;;2237568;26;20265;-72
2024/04/15 04:46:56;;;;;;;6.63;4.93;;;12.60;99.90;;;;;;2249872;26;20272;-71
2024/04/15 04:47:56;;;;;;;6.30;4.63;;;12.60;99.90;;;;;;2235265;26;20742;-71
2024/04/15 04:48:57;;;;;;;6.00;4.60;;;12.50;99.90;;;;;;2222289;26;20269;-71
2024/04/15 04:49:58;;;;;;;6.60;4.97;;;12.60;99.90;;;;;;2245953;26;20268;-71
2024/04/15 04:51:08;;;;;;;5.00;4.27;;;12.60;99.90;;;;;;2250682;26;20272;-71
2024/04/15 04:52:09;;;;;;;5.18;4.30;;;12.60;99.90;;;;;;2250222;26;20863;-71
2024/04/15 04:53:09;;;;;;;5.70;4.33;;;12.70;99.90;;;;;;2236261;26;20237;-71
2024/04/15 04:54:12;;;;;;;4.43;4.03;;;12.70;99.90;;;;;;2251511;26;20232;-71
2024/04/15 04:55:13;;;;;;;5.93;4.30;;;12.70;99.90;;;;;;2237337;26;20280;-70
2024/04/15 04:56:14;;;;;;;6.13;4.27;;;12.70;99.90;;;;;;2235730;26;20351;-71
2024/04/15 04:57:15;;;;;;;4.78;3.75;;;12.70;99.90;;;;;;2235483;26;20293;-71
2024/04/15 04:58:16;;;;;;;4.80;4.00;;;12.60;99.90;;;;;;2250795;26;20762;-71
2024/04/15 04:59:17;;;;;;;7.50;4.80;;;12.60;99.90;;;;;;2243786;26;20315;-70
2024/04/15 05:00:18;;;;;;;6.27;4.80;;;12.60;99.90;;;;;;2233021;26;20467;-71
2024/04/15 05:01:19;;;;;;;5.07;4.53;;;12.70;99.90;;;;;;2219515;26;20323;-70
2024/04/15 05:02:21;;;;;;;7.68;4.63;;;12.70;99.90;;;;;;2249969;26;20307;-70
2024/04/15 05:03:22;;;;;;;5.50;4.68;;;12.60;99.90;;;;;;2246509;26;20269;-71
2024/04/15 05:04:23;;;;;;;14.53;5.07;;;12.70;99.90;;;;;;2243626;26;20268;-70
2024/04/15 05:05:23;;;;;;;6.70;4.57;;;12.60;99.90;;;;;;2234122;26;20273;-71
2024/04/15 05:06:24;;;;;;;6.07;5.00;;;12.60;99.90;;;;;;2236053;26;20365;-71
2024/04/15 05:07:25;;;;;;;5.23;4.73;;;12.60;99.90;;;;;;2235475;26;20269;-70
2024/04/15 05:08:25;;;;;;;5.00;4.50;;;12.70;99.90;;;;;;2237710;26;20257;-72
2024/04/15 05:09:26;;;;;;;8.77;4.73;;;12.80;99.90;;;;;;2243288;26;20269;-71
2024/04/15 05:10:27;;;;;;;6.77;4.47;;;12.80;99.90;;;;;;2243205;26;20311;-71
2024/04/15 05:11:28;;;;;;;4.60;4.13;;;12.80;99.90;;;;;;2235610;26;20377;-70
2024/04/15 05:12:29;;;;;;;6.50;4.38;;;12.70;99.90;;;;;;2231396;26;20268;-70
2024/04/15 05:13:30;;;;;;;5.23;4.03;;;12.80;99.90;;;;;;2228757;26;20307;-71
2024/04/15 05:14:31;;;;;;;6.55;4.03;;;12.70;99.90;;;;;;2230294;26;20343;-70
2024/04/15 05:15:32;;;;;;;4.90;4.40;;;12.70;99.90;;;;;;2243417;26;20369;-71
2024/04/15 05:16:32;;;;;;;6.20;4.07;;;12.80;99.90;;;;;;2245646;26;20607;-71
2024/04/15 05:17:33;;;;;;;5.70;3.87;;;12.80;99.90;;;;;;2242324;26;20272;-70
2024/04/15 05:18:37;;;;;;;5.88;3.90;;;12.90;99.90;;;;;;2221357;26;20335;-71